Overview Statistics Trail Chart Weather Telemetry Raw packets
 

This is the latest recevied weather packets stored in our database for station/object CQ0XCH-11. If no packets are shown the sender has not sent any weather packets the latest 10 day(s).

<< 100 101 102 103 104 105 106 >>
Time Temp. Humidity Pressure Rain* Wind** Luminosity Snow
1777388350 30.56° C 21% 986.4 hPa 0 mm - - -
1777387999 30° C 23% 986.5 hPa 0 mm - - -
1777387878 30° C 23% 986.6 hPa 0 mm - - -
1777387735 30° C 22% 986.5 hPa 0 mm - - -
1777387608 29.44° C 24% 986.6 hPa 0 mm - - -
1777387242 29.44° C 24% 986.7 hPa 0 mm - - -
1777387145 28.89° C 24% 986.8 hPa 0 mm - - -
1777386779 28.89° C 20% 987 hPa 0 mm - - -
1777386626 28.89° C 21% 987.1 hPa 0 mm - - -
1777386141 28.33° C 24% 987.1 hPa 0 mm - - -
1777386034 28.33° C 24% 987.4 hPa 0 mm - - -
1777385915 28.89° C 25% 987.3 hPa 0 mm - - -
1777385784 28.89° C 24% 987.3 hPa 0 mm - - -
1777385536 29.44° C 23% 987.4 hPa 0 mm - - -
1777385394 29.44° C 23% 987.2 hPa 0 mm - - -
1777385323 29.44° C 22% 987.3 hPa 0 mm - - -
1777385147 29.44° C 22% 987.2 hPa 0 mm - - -
1777385026 30° C 21% 987.3 hPa 0 mm - - -
1777384784 30.56° C 20% 987.2 hPa 0 mm - - -
1777384676 31.67° C 18% 987 hPa 0 mm - - -
1777384570 31.67° C 18% 987.1 hPa 0 mm - - -
1777384279 32.78° C 16% 987.1 hPa 0 mm - - -
1777384171 33.33° C 16% 987 hPa 0 mm - - -
1777384121 33.89° C 15% 987 hPa 0 mm - - -
1777383919 33.89° C 15% 987 hPa 0 mm - - -

* Rain since midnight (hover to see other rain measurements)
** Current wind speed in m/s (hover to see current wind gust speed)